createdAt,value
2017-11-11T00:02:07.079Z,2.80
2017-11-11T00:04:36.339Z,2.90
2017-11-11T00:07:05.622Z,2.80
2017-11-11T00:09:34.835Z,2.70
2017-11-11T00:12:04.114Z,2.70
2017-11-11T00:14:33.347Z,2.70
2017-11-11T00:17:02.597Z,2.70
2017-11-11T00:19:31.921Z,2.60
2017-11-11T00:22:01.937Z,2.60
2017-11-11T00:24:31.166Z,2.60
2017-11-11T00:27:00.460Z,2.60
2017-11-11T00:29:29.686Z,2.50
2017-11-11T00:31:58.944Z,2.40
2017-11-11T00:34:28.948Z,2.40
2017-11-11T00:36:58.205Z,2.40
2017-11-11T00:39:27.445Z,2.40
2017-11-11T00:41:57.627Z,2.30
2017-11-11T00:44:26.896Z,2.30
2017-11-11T00:46:56.186Z,2.30
2017-11-11T00:49:25.607Z,2.30
2017-11-11T00:51:55.382Z,2.20
2017-11-11T00:54:25.394Z,2.20
2017-11-11T00:56:54.665Z,2.20
2017-11-11T00:59:23.894Z,2.20
2017-11-11T01:01:53.252Z,2.30
2017-11-11T01:04:22.490Z,2.30
2017-11-11T01:06:51.810Z,2.30
2017-11-11T01:09:21.296Z,2.30
2017-11-11T01:11:50.564Z,2.20
2017-11-11T01:14:19.820Z,2.20
2017-11-11T01:16:49.058Z,2.20
2017-11-11T01:19:18.638Z,2.20
2017-11-11T01:21:48.538Z,2.30
2017-11-11T01:24:18.139Z,2.40
2017-11-11T01:26:47.383Z,2.40
2017-11-11T01:29:16.624Z,2.40
2017-11-11T01:31:45.886Z,2.40
2017-11-11T01:34:15.138Z,2.50
2017-11-11T01:36:44.399Z,2.50
2017-11-11T01:39:13.751Z,2.50
2017-11-11T01:41:42.971Z,2.60
2017-11-11T01:44:12.355Z,2.50
2017-11-11T01:46:42.348Z,2.60
2017-11-11T01:49:11.595Z,2.60
2017-11-11T01:51:40.851Z,2.60
2017-11-11T01:54:10.074Z,2.70
2017-11-11T01:56:39.331Z,2.60
2017-11-11T01:59:08.593Z,2.70
2017-11-11T02:01:37.820Z,2.70
2017-11-11T02:04:07.075Z,2.80
2017-11-11T02:06:36.324Z,2.90
2017-11-11T02:09:05.554Z,2.90
2017-11-11T02:11:34.869Z,3.00
2017-11-11T02:14:04.891Z,3.00
2017-11-11T02:16:34.155Z,3.00
2017-11-11T02:19:03.378Z,3.00
2017-11-11T02:21:32.711Z,3.00
2017-11-11T02:24:02.706Z,2.90
2017-11-11T02:26:32.124Z,2.80
2017-11-11T02:29:02.143Z,2.80
2017-11-11T02:31:31.418Z,2.80
2017-11-11T02:34:00.655Z,2.80
2017-11-11T02:36:29.931Z,2.80
2017-11-11T02:39:00.048Z,2.80
2017-11-11T02:41:29.282Z,2.70
2017-11-11T02:43:58.651Z,2.80
2017-11-11T02:46:28.672Z,2.70
2017-11-11T02:48:57.935Z,2.70
2017-11-11T02:51:27.194Z,2.70
2017-11-11T02:53:57.204Z,2.80
2017-11-11T02:56:26.467Z,2.70
2017-11-11T02:58:55.699Z,2.80
2017-11-11T03:01:25.820Z,2.80
2017-11-11T03:03:55.849Z,2.70
2017-11-11T03:06:25.067Z,2.80
2017-11-11T03:08:54.530Z,2.70
2017-11-11T03:11:23.757Z,2.70
2017-11-11T03:13:53.142Z,2.70
2017-11-11T03:16:23.186Z,2.80
2017-11-11T03:18:52.422Z,2.80
2017-11-11T03:21:21.840Z,2.80
2017-11-11T03:23:51.778Z,2.80
2017-11-11T03:26:21.112Z,2.70
2017-11-11T03:28:50.346Z,2.70
2017-11-11T03:31:19.593Z,2.70
2017-11-11T03:33:48.847Z,2.60
2017-11-11T03:36:18.097Z,2.60
2017-11-11T03:38:48.201Z,2.60
2017-11-11T03:41:17.494Z,2.60
2017-11-11T03:43:46.759Z,2.50
2017-11-11T03:46:16.108Z,2.50
2017-11-11T03:48:45.403Z,2.50
2017-11-11T03:51:14.635Z,2.40
2017-11-11T03:53:43.893Z,2.40
2017-11-11T03:56:13.231Z,2.40
2017-11-11T03:58:42.584Z,2.40
2017-11-11T04:01:11.815Z,2.40
2017-11-11T04:03:41.227Z,2.40
2017-11-11T04:06:10.469Z,2.40
2017-11-11T04:08:39.682Z,2.50
2017-11-11T04:11:09.111Z,2.50
2017-11-11T04:13:38.354Z,2.50
2017-11-11T04:16:07.603Z,2.60
2017-11-11T04:18:36.846Z,2.50
2017-11-11T04:21:06.126Z,2.60
2017-11-11T04:23:35.502Z,2.60
2017-11-11T04:26:04.768Z,2.60
2017-11-11T04:28:34.006Z,2.60
2017-11-11T04:31:03.391Z,2.60
2017-11-11T04:33:32.639Z,2.60
2017-11-11T04:36:02.249Z,2.60
2017-11-11T04:38:31.628Z,2.70
2017-11-11T04:41:01.151Z,2.70
2017-11-11T04:43:31.162Z,2.80
2017-11-11T04:46:00.569Z,2.80
2017-11-11T04:48:30.711Z,2.90
2017-11-11T04:50:59.947Z,2.90
2017-11-11T04:53:29.287Z,2.90
2017-11-11T04:55:58.574Z,3.00
2017-11-11T04:58:27.809Z,3.10
2017-11-11T05:00:57.316Z,3.10
2017-11-11T05:03:26.513Z,3.20
2017-11-11T05:05:56.524Z,3.20
2017-11-11T05:08:25.747Z,3.20
2017-11-11T05:10:55.010Z,3.30
2017-11-11T05:13:25.007Z,3.40
2017-11-11T05:15:54.294Z,3.40
2017-11-11T05:18:23.655Z,3.50
2017-11-11T05:20:52.922Z,3.60
2017-11-11T05:23:22.153Z,3.60
2017-11-11T05:25:52.173Z,3.60
2017-11-11T05:28:22.220Z,3.60
2017-11-11T05:30:51.462Z,3.70
2017-11-11T05:33:20.726Z,3.80
2017-11-11T05:35:50.016Z,3.80
2017-11-11T05:38:19.262Z,3.80
2017-11-11T05:40:48.891Z,3.90
2017-11-11T05:43:18.903Z,3.90
2017-11-11T05:45:48.134Z,3.90
2017-11-11T05:48:17.386Z,3.90
2017-11-11T05:50:46.612Z,3.90
2017-11-11T05:53:15.920Z,4.00
2017-11-11T05:55:45.135Z,4.10
2017-11-11T05:58:14.393Z,4.10
2017-11-11T06:00:43.664Z,4.10
2017-11-11T06:03:12.922Z,4.20
2017-11-11T06:05:42.143Z,4.20
2017-11-11T06:08:11.404Z,4.30
2017-11-11T06:10:40.615Z,4.40
2017-11-11T06:13:09.864Z,4.40
2017-11-11T06:15:39.090Z,4.40
2017-11-11T06:18:08.395Z,4.30
2017-11-11T06:20:37.647Z,4.40
2017-11-11T06:23:06.903Z,4.40
2017-11-11T06:25:36.138Z,4.50
2017-11-11T06:28:05.984Z,4.50
2017-11-11T06:30:35.228Z,4.50
2017-11-11T06:33:04.626Z,4.60
2017-11-11T06:35:34.646Z,4.60
2017-11-11T06:38:03.874Z,4.60
2017-11-11T06:40:33.341Z,4.70
2017-11-11T06:43:02.651Z,4.70
2017-11-11T06:45:31.948Z,4.70
2017-11-11T06:48:01.990Z,4.80
2017-11-11T06:50:31.575Z,4.80
2017-11-11T06:53:01.868Z,4.90
2017-11-11T06:55:31.237Z,4.90
2017-11-11T06:58:00.478Z,4.90
2017-11-11T07:00:29.834Z,4.90
2017-11-11T07:02:59.259Z,5.00
2017-11-11T07:05:28.518Z,5.00
2017-11-11T07:07:57.766Z,5.10
2017-11-11T07:10:27.031Z,5.10
2017-11-11T07:12:56.299Z,5.10
2017-11-11T07:15:25.532Z,5.20
2017-11-11T07:17:55.526Z,5.20
2017-11-11T07:20:25.551Z,5.30
2017-11-11T07:22:54.892Z,5.20
2017-11-11T07:25:24.131Z,5.30
2017-11-11T07:27:54.980Z,5.40
2017-11-11T07:30:24.223Z,5.40
2017-11-11T07:32:53.454Z,5.50
2017-11-11T07:35:22.724Z,5.60
2017-11-11T07:37:52.051Z,5.70
2017-11-11T07:40:21.486Z,5.60
2017-11-11T07:42:51.496Z,5.70
2017-11-11T07:45:22.254Z,5.60
2017-11-11T07:47:51.501Z,5.60
2017-11-11T07:50:20.756Z,5.60
2017-11-11T07:52:51.194Z,5.80
2017-11-11T07:55:20.446Z,5.70
2017-11-11T07:57:49.689Z,5.90
2017-11-11T08:00:19.690Z,6.00
2017-11-11T08:02:48.935Z,6.00
2017-11-11T08:05:18.187Z,6.10
2017-11-11T08:07:48.191Z,6.20
2017-11-11T08:10:17.694Z,6.30
2017-11-11T08:12:47.147Z,6.30
2017-11-11T08:15:16.404Z,6.30
2017-11-11T08:17:45.645Z,6.30
2017-11-11T08:20:14.902Z,6.30
2017-11-11T08:22:44.171Z,6.30
2017-11-11T08:25:13.477Z,6.30
2017-11-11T08:27:43.446Z,6.30
2017-11-11T08:30:12.684Z,6.30
2017-11-11T08:32:41.939Z,6.30
2017-11-11T08:35:11.971Z,6.10
2017-11-11T08:37:41.319Z,6.10
2017-11-11T08:40:10.566Z,6.20
2017-11-11T08:42:39.974Z,6.30
2017-11-11T08:45:09.982Z,6.30
2017-11-11T08:47:39.239Z,6.30
2017-11-11T08:50:08.483Z,6.40
2017-11-11T08:52:38.615Z,6.40
2017-11-11T08:55:07.841Z,6.40
2017-11-11T08:57:37.079Z,6.40
2017-11-11T09:00:06.339Z,6.30
2017-11-11T09:02:35.574Z,6.40
2017-11-11T09:05:04.813Z,6.40
2017-11-11T09:07:34.215Z,6.50
2017-11-11T09:10:04.553Z,6.70
2017-11-11T09:12:33.832Z,6.70
2017-11-11T09:15:03.149Z,6.80
2017-11-11T09:17:33.264Z,6.80
2017-11-11T09:20:02.583Z,6.80
2017-11-11T09:22:31.839Z,6.90
2017-11-11T09:25:01.124Z,6.90
2017-11-11T09:27:30.451Z,6.90
2017-11-11T09:29:59.719Z,6.90
2017-11-11T09:32:28.960Z,6.80
2017-11-11T09:34:58.191Z,6.90
2017-11-11T09:37:27.471Z,6.90
2017-11-11T09:39:56.899Z,7.10
2017-11-11T09:42:26.154Z,7.20
2017-11-11T09:44:55.389Z,7.20
2017-11-11T09:47:24.659Z,7.30
2017-11-11T09:49:54.196Z,7.40
2017-11-11T09:52:24.369Z,7.50
2017-11-11T09:54:53.625Z,7.50
2017-11-11T09:57:22.863Z,7.50
2017-11-11T09:59:52.152Z,7.50
2017-11-11T10:02:21.415Z,7.30
2017-11-11T10:04:51.680Z,7.40
2017-11-11T10:07:20.922Z,7.30
2017-11-11T10:09:50.187Z,7.40
2017-11-11T10:12:19.439Z,7.40
2017-11-11T10:14:48.673Z,7.40
2017-11-11T10:17:17.992Z,7.50
2017-11-11T10:19:47.252Z,7.50
2017-11-11T10:22:16.502Z,7.60
2017-11-11T10:24:45.742Z,7.60
2017-11-11T10:27:15.763Z,7.70
2017-11-11T10:29:45.018Z,7.70
2017-11-11T10:32:14.460Z,7.50
2017-11-11T10:34:43.724Z,7.50
2017-11-11T10:37:12.959Z,7.60
2017-11-11T10:39:42.196Z,7.50
2017-11-11T10:42:11.446Z,7.70
2017-11-11T10:44:40.704Z,7.80
2017-11-11T10:47:10.804Z,7.90
2017-11-11T10:49:40.116Z,8.00
2017-11-11T10:52:09.459Z,8.00
2017-11-11T10:54:38.711Z,8.10
2017-11-11T10:57:07.959Z,8.30
2017-11-11T10:59:37.227Z,8.40
2017-11-11T11:02:06.469Z,8.50
2017-11-11T11:04:35.902Z,8.40
2017-11-11T11:07:05.890Z,8.30
2017-11-11T11:09:48.004Z,8.30
2017-11-11T11:12:17.264Z,8.20
2017-11-11T11:14:46.499Z,8.20
2017-11-11T11:17:15.764Z,8.10
2017-11-11T11:19:45.038Z,7.90
2017-11-11T11:22:14.288Z,8.00
2017-11-11T11:24:43.528Z,8.00
2017-11-11T11:27:12.786Z,8.10
2017-11-11T11:29:42.819Z,8.00
2017-11-11T11:32:12.086Z,8.00
2017-11-11T11:34:41.330Z,8.00
2017-11-11T11:37:10.565Z,7.90
2017-11-11T11:39:39.806Z,8.00
2017-11-11T11:42:09.829Z,7.90
2017-11-11T11:44:39.092Z,7.90
2017-11-11T11:47:08.393Z,7.80
2017-11-11T11:49:37.628Z,7.80
2017-11-11T11:52:07.642Z,7.90
2017-11-11T11:54:36.991Z,7.90
2017-11-11T11:57:06.244Z,8.00
2017-11-11T11:59:35.637Z,8.00
2017-11-11T12:02:04.901Z,8.00
2017-11-11T12:04:34.147Z,8.00
2017-11-11T12:07:03.573Z,8.00
2017-11-11T12:09:33.576Z,8.00
2017-11-11T12:12:03.422Z,7.90
2017-11-11T12:14:32.886Z,8.00
2017-11-11T12:17:02.284Z,8.10
2017-11-11T12:19:31.491Z,8.20
2017-11-11T12:22:01.616Z,8.10
2017-11-11T12:24:31.747Z,8.20
2017-11-11T12:27:01.756Z,8.20
2017-11-11T12:29:31.012Z,8.20
2017-11-11T12:32:00.275Z,8.10
2017-11-11T12:34:30.363Z,8.00
2017-11-11T12:36:59.612Z,8.00
2017-11-11T12:39:28.863Z,8.10
2017-11-11T12:41:58.131Z,8.10
2017-11-11T12:44:27.377Z,8.20
2017-11-11T12:46:57.395Z,8.30
2017-11-11T12:49:27.395Z,8.30
2017-11-11T12:51:57.549Z,8.30
2017-11-11T12:54:27.567Z,8.30
2017-11-11T12:56:56.846Z,8.30
2017-11-11T12:59:27.588Z,8.30
2017-11-11T13:01:56.829Z,8.20
2017-11-11T13:04:26.080Z,8.30
2017-11-11T13:06:55.315Z,8.30
2017-11-11T13:09:24.593Z,8.40
2017-11-11T13:11:53.825Z,8.40
2017-11-11T13:14:23.064Z,8.40
2017-11-11T13:16:52.311Z,8.50
2017-11-11T13:19:21.544Z,8.50
2017-11-11T13:21:50.781Z,8.60
2017-11-11T13:24:20.082Z,8.60
2017-11-11T13:26:50.200Z,8.70
2017-11-11T13:29:20.223Z,8.70
2017-11-11T13:31:49.475Z,8.70
2017-11-11T13:34:18.736Z,8.70
2017-11-11T13:36:48.749Z,8.50
2017-11-11T13:39:18.763Z,8.50
2017-11-11T13:41:49.075Z,8.60
2017-11-11T13:44:18.324Z,8.60
2017-11-11T13:46:47.583Z,8.60
2017-11-11T13:49:16.816Z,8.60
2017-11-11T13:51:46.078Z,8.60
2017-11-11T13:54:15.322Z,8.70
2017-11-11T13:56:44.581Z,8.70
2017-11-11T13:59:13.947Z,8.70
2017-11-11T14:01:43.184Z,8.70
2017-11-11T14:04:12.431Z,8.70
2017-11-11T14:06:41.663Z,8.70
2017-11-11T14:09:10.932Z,8.80
2017-11-11T14:11:40.181Z,8.90
2017-11-11T14:14:09.455Z,8.90
2017-11-11T14:16:38.714Z,8.90
2017-11-11T14:19:08.719Z,8.80
2017-11-11T14:21:37.994Z,8.80
2017-11-11T14:24:07.405Z,8.80
2017-11-11T14:26:36.691Z,8.80
2017-11-11T14:29:05.995Z,8.80
2017-11-11T14:31:35.310Z,8.90
2017-11-11T14:34:04.623Z,8.80
2017-11-11T14:36:34.644Z,8.90
2017-11-11T14:39:03.891Z,8.90
2017-11-11T14:41:33.153Z,8.90
2017-11-11T14:44:03.245Z,8.80
2017-11-11T14:46:32.551Z,8.80
2017-11-11T14:49:01.803Z,8.80
2017-11-11T14:51:31.059Z,8.90
2017-11-11T14:54:00.310Z,8.80
2017-11-11T14:56:29.582Z,8.80
2017-11-11T14:58:58.824Z,8.80
2017-11-11T15:01:28.100Z,8.80
2017-11-11T15:03:57.343Z,8.70
2017-11-11T15:06:27.437Z,8.60
2017-11-11T15:08:56.806Z,8.60
2017-11-11T15:11:26.040Z,8.60
2017-11-11T15:13:55.318Z,8.60
2017-11-11T15:16:24.567Z,8.70
2017-11-11T15:18:53.831Z,8.70
2017-11-11T15:21:23.111Z,8.70
2017-11-11T15:23:52.407Z,8.70
2017-11-11T15:26:21.647Z,8.70
2017-11-11T15:28:50.909Z,8.70
2017-11-11T15:31:20.164Z,8.70
2017-11-11T15:33:49.519Z,8.70
2017-11-11T15:36:19.008Z,8.70
2017-11-11T15:38:49.726Z,8.70
2017-11-11T15:41:18.991Z,8.60
2017-11-11T15:43:48.229Z,8.60
2017-11-11T15:46:17.630Z,8.60
2017-11-11T15:48:47.685Z,8.60
2017-11-11T15:51:16.960Z,8.60
2017-11-11T15:53:46.206Z,8.50
2017-11-11T15:56:15.475Z,8.50
2017-11-11T15:58:44.765Z,8.50
2017-11-11T16:01:14.766Z,8.60
2017-11-11T16:03:44.032Z,8.50
2017-11-11T16:06:13.291Z,8.50
2017-11-11T16:08:43.322Z,8.60
2017-11-11T16:11:13.307Z,8.50
2017-11-11T16:13:42.572Z,8.60
2017-11-11T16:16:11.835Z,8.40
2017-11-11T16:18:41.139Z,8.40
2017-11-11T16:21:10.433Z,8.40
2017-11-11T16:23:39.634Z,8.50
2017-11-11T16:26:08.944Z,8.50
2017-11-11T16:28:38.173Z,8.50
2017-11-11T16:31:07.403Z,8.50
2017-11-11T16:33:37.000Z,8.50
2017-11-11T16:36:06.279Z,8.40
2017-11-11T16:38:35.559Z,8.40
2017-11-11T16:41:04.807Z,8.40
2017-11-11T16:43:34.248Z,8.50
2017-11-11T16:46:03.460Z,8.50
2017-11-11T16:48:32.722Z,8.50
2017-11-11T16:51:01.959Z,8.50
2017-11-11T16:53:31.219Z,8.40
2017-11-11T16:56:00.468Z,8.50
2017-11-11T16:58:29.714Z,8.50
2017-11-11T17:00:58.961Z,8.60
2017-11-11T17:03:28.340Z,8.60
2017-11-11T17:05:57.656Z,8.60
2017-11-11T17:08:28.375Z,8.40
2017-11-11T17:10:58.391Z,8.50
2017-11-11T17:13:28.426Z,8.50
2017-11-11T17:15:57.729Z,8.50
2017-11-11T17:18:26.925Z,8.40
2017-11-11T17:20:57.224Z,8.40
2017-11-11T17:23:26.473Z,8.30
2017-11-11T17:25:55.747Z,8.30
2017-11-11T17:28:24.992Z,8.40
2017-11-11T17:30:54.277Z,8.40
2017-11-11T17:33:24.480Z,8.50
2017-11-11T17:35:53.694Z,8.50
2017-11-11T17:38:22.947Z,8.50
2017-11-11T17:40:52.181Z,8.50
2017-11-11T17:43:22.189Z,8.50
2017-11-11T17:45:52.198Z,8.50
2017-11-11T17:48:22.281Z,8.40
2017-11-11T17:50:51.537Z,8.40
2017-11-11T17:53:20.930Z,8.40
2017-11-11T17:55:50.365Z,8.30
2017-11-11T17:58:19.610Z,8.30
2017-11-11T18:00:48.881Z,8.30
2017-11-11T18:03:18.153Z,8.20
2017-11-11T18:05:48.159Z,8.20
2017-11-11T18:08:18.166Z,8.10
2017-11-11T18:10:48.186Z,8.10
2017-11-11T18:13:18.225Z,8.10
2017-11-11T18:15:47.595Z,8.10
2017-11-11T18:18:17.740Z,8.20
2017-11-11T18:20:47.044Z,8.20
2017-11-11T18:23:16.318Z,8.30
2017-11-11T18:25:45.515Z,8.30
2017-11-11T18:28:15.047Z,8.30
2017-11-11T18:30:44.272Z,8.30
2017-11-11T18:33:13.728Z,8.30
2017-11-11T18:35:42.970Z,8.30
2017-11-11T18:38:12.240Z,8.30
2017-11-11T18:40:41.635Z,8.30
2017-11-11T18:43:10.870Z,8.30
2017-11-11T18:45:40.128Z,8.30
2017-11-11T18:48:09.372Z,8.30
2017-11-11T18:50:38.645Z,8.30
2017-11-11T18:53:07.880Z,8.30
2017-11-11T18:55:37.142Z,8.30
2017-11-11T18:58:06.561Z,8.30
2017-11-11T19:00:36.663Z,8.30
2017-11-11T19:03:05.917Z,8.20
2017-11-11T19:05:35.159Z,8.20
2017-11-11T19:08:04.498Z,8.20
2017-11-11T19:10:33.767Z,8.20
2017-11-11T19:13:03.020Z,8.20
2017-11-11T19:15:32.504Z,8.10
2017-11-11T19:18:02.497Z,8.10
2017-11-11T19:20:32.564Z,8.20
2017-11-11T19:23:01.833Z,8.10
2017-11-11T19:25:31.199Z,8.20
2017-11-11T19:28:00.667Z,8.20
2017-11-11T19:30:29.919Z,8.20
2017-11-11T19:32:59.961Z,8.10
2017-11-11T19:35:29.260Z,8.10
2017-11-11T19:37:58.479Z,8.00
2017-11-11T19:40:27.731Z,8.00
2017-11-11T19:42:57.052Z,7.80
2017-11-11T19:45:26.362Z,7.70
2017-11-11T19:47:56.449Z,7.40
2017-11-11T19:50:25.688Z,7.40
2017-11-11T19:52:54.935Z,7.20
2017-11-11T19:55:24.287Z,7.10
2017-11-11T19:57:53.620Z,7.10
2017-11-11T20:00:23.660Z,7.00
2017-11-11T20:02:52.925Z,7.00
2017-11-11T20:05:22.236Z,7.10
2017-11-11T20:07:51.511Z,7.10
2017-11-11T20:10:20.772Z,7.20
2017-11-11T20:12:50.021Z,7.20
2017-11-11T20:15:19.247Z,7.20
2017-11-11T20:17:48.600Z,7.20
2017-11-11T20:20:17.827Z,7.30
2017-11-11T20:22:47.084Z,7.20
2017-11-11T20:25:16.323Z,7.20
2017-11-11T20:27:45.647Z,7.20
2017-11-11T20:30:14.908Z,7.20
2017-11-11T20:32:44.908Z,7.10
2017-11-11T20:35:14.165Z,7.20
2017-11-11T20:37:43.396Z,7.20
2017-11-11T20:40:12.835Z,7.20
2017-11-11T20:42:42.791Z,7.10
2017-11-11T20:45:12.221Z,7.10
2017-11-11T20:47:41.463Z,7.10
2017-11-11T20:50:11.494Z,7.20
2017-11-11T20:52:41.093Z,7.10
2017-11-11T20:55:11.115Z,7.10
2017-11-11T20:57:40.375Z,7.10
2017-11-11T21:00:09.641Z,7.00
2017-11-11T21:02:38.882Z,7.00
2017-11-11T21:05:08.127Z,7.00
2017-11-11T21:07:37.377Z,7.00
2017-11-11T21:10:08.121Z,7.00
2017-11-11T21:12:37.367Z,7.00
2017-11-11T21:15:06.598Z,7.00
2017-11-11T21:17:35.925Z,6.90
2017-11-11T21:20:05.164Z,6.90
2017-11-11T21:22:34.455Z,6.70
2017-11-11T21:25:03.750Z,6.70
2017-11-11T21:27:33.009Z,6.70
2017-11-11T21:30:03.836Z,6.50
2017-11-11T21:32:33.071Z,6.50
2017-11-11T21:35:02.506Z,6.50
2017-11-11T21:37:31.750Z,6.50
2017-11-11T21:40:01.003Z,6.40
2017-11-11T21:42:30.273Z,6.40
2017-11-11T21:44:59.587Z,6.40
2017-11-11T21:47:28.798Z,6.40
2017-11-11T21:49:58.068Z,6.40
2017-11-11T21:52:28.067Z,6.50
2017-11-11T21:54:57.319Z,6.40
2017-11-11T21:57:26.567Z,6.40
2017-11-11T21:59:55.807Z,6.50
2017-11-11T22:02:25.188Z,6.50
2017-11-11T22:04:55.200Z,6.60
2017-11-11T22:07:24.439Z,6.60
2017-11-11T22:09:53.686Z,6.60
2017-11-11T22:12:22.925Z,6.70
2017-11-11T22:14:52.215Z,6.70
2017-11-11T22:17:21.444Z,6.70
2017-11-11T22:19:50.927Z,6.80
2017-11-11T22:22:21.049Z,6.90
2017-11-11T22:24:50.538Z,6.90
2017-11-11T22:27:20.852Z,7.00
2017-11-11T22:29:50.113Z,7.00
2017-11-11T22:32:19.355Z,7.00
2017-11-11T22:34:48.616Z,7.00
2017-11-11T22:37:17.976Z,7.10
2017-11-11T22:39:47.227Z,7.10
2017-11-11T22:42:16.467Z,7.20
2017-11-11T22:44:45.894Z,7.20
2017-11-11T22:47:16.607Z,7.20
2017-11-11T22:49:45.869Z,7.20
2017-11-11T22:52:15.102Z,7.20
2017-11-11T22:54:44.364Z,7.30
2017-11-11T22:57:13.628Z,7.30
2017-11-11T22:59:42.871Z,7.30
2017-11-11T23:02:12.135Z,7.40
2017-11-11T23:04:42.890Z,7.40
2017-11-11T23:07:12.136Z,7.40
2017-11-11T23:09:41.403Z,7.40
2017-11-11T23:12:10.653Z,7.30
2017-11-11T23:14:40.048Z,7.30
2017-11-11T23:17:09.282Z,7.30
2017-11-11T23:19:38.559Z,7.30
2017-11-11T23:22:08.036Z,7.30
2017-11-11T23:24:37.275Z,7.30
2017-11-11T23:27:06.572Z,7.30
2017-11-11T23:29:36.800Z,7.10
2017-11-11T23:32:06.051Z,7.10
2017-11-11T23:34:35.478Z,7.00
2017-11-11T23:37:05.657Z,6.80
2017-11-11T23:39:34.927Z,6.80
2017-11-11T23:42:05.036Z,6.70
2017-11-11T23:44:35.055Z,6.70
2017-11-11T23:47:04.311Z,6.70
2017-11-11T23:49:33.589Z,6.60
2017-11-11T23:52:02.860Z,6.60
2017-11-11T23:54:32.862Z,6.50
2017-11-11T23:57:02.107Z,6.50
2017-11-11T23:59:31.347Z,6.40
